Time;durP1;ratioP1;P1;durP2;ratioP2;P2;SDS_P1;SDS_P2;PMS_P1;PMS_P2;Temp;Humidity;BMP_temperature;BMP_pressure;BME280_temperature;BME280_humidity;BME280_pressure;Samples;Min_cycle;Max_cycle;Signal;HPM_P1;HPM_P2
2022/07/24 00:01:05;;;;;;;10.30;9.40;;;20.20;99.90;;;;;;5053726;28;20468;-72
2022/07/24 00:03:32;;;;;;;10.27;9.37;;;20.10;99.90;;;;;;5053307;28;20882;-72
2022/07/24 00:05:59;;;;;;;9.97;9.03;;;20.10;99.90;;;;;;5052158;28;20492;-72
2022/07/24 00:08:25;;;;;;;9.23;8.30;;;20.10;99.90;;;;;;5052222;28;20464;-72
2022/07/24 00:10:52;;;;;;;10.97;9.87;;;20.00;99.90;;;;;;5051709;28;20495;-72
2022/07/24 00:13:19;;;;;;;9.90;9.10;;;19.90;99.90;;;;;;5052222;28;20466;-72
2022/07/24 00:15:47;;;;;;;11.20;10.20;;;19.90;99.90;;;;;;5052011;28;20490;-71
2022/07/24 00:18:13;;;;;;;11.65;10.57;;;19.90;99.90;;;;;;5051794;28;20493;-72
2022/07/24 00:20:40;;;;;;;10.73;9.63;;;19.90;99.90;;;;;;5051560;28;20198;-72
2022/07/24 00:23:07;;;;;;;13.13;9.40;;;19.90;99.90;;;;;;5052182;28;20468;-72
2022/07/24 00:25:34;;;;;;;9.57;8.70;;;19.90;99.90;;;;;;5052167;28;20479;-72
2022/07/24 00:28:00;;;;;;;9.80;9.00;;;19.90;99.90;;;;;;5051920;28;20464;-72
2022/07/24 00:30:27;;;;;;;10.67;9.67;;;19.80;99.90;;;;;;5051795;28;20488;-72
2022/07/24 00:32:55;;;;;;;10.37;9.47;;;19.80;99.90;;;;;;5052008;28;20460;-72
2022/07/24 00:35:22;;;;;;;10.20;9.20;;;19.80;99.90;;;;;;5051631;28;20472;-72
2022/07/24 00:37:48;;;;;;;10.17;9.17;;;19.80;99.90;;;;;;5052373;28;20460;-72
2022/07/24 00:40:16;;;;;;;10.57;9.70;;;19.70;99.90;;;;;;5051449;28;20537;-72
2022/07/24 00:42:43;;;;;;;9.33;8.57;;;19.70;99.90;;;;;;5051858;28;20490;-71
2022/07/24 00:45:11;;;;;;;10.43;9.23;;;19.70;99.90;;;;;;5051815;28;20999;-72
2022/07/24 00:47:37;;;;;;;10.40;9.33;;;19.70;99.90;;;;;;5052064;28;20861;-72
2022/07/24 00:50:07;;;;;;;11.00;10.00;;;19.60;99.90;;;;;;5050992;28;20504;-72
2022/07/24 00:52:34;;;;;;;10.03;9.13;;;19.60;99.90;;;;;;5051488;28;20460;-72
2022/07/24 00:55:01;;;;;;;10.80;9.80;;;19.50;99.90;;;;;;5051129;28;20491;-72
2022/07/24 00:57:27;;;;;;;10.20;9.30;;;19.50;99.90;;;;;;5055647;28;20955;-72
2022/07/24 00:59:54;;;;;;;10.50;9.50;;;19.50;99.90;;;;;;5054928;28;20456;-72
2022/07/24 01:02:21;;;;;;;10.48;9.57;;;19.40;99.90;;;;;;5055794;28;20463;-72
2022/07/24 01:04:48;;;;;;;9.70;8.90;;;19.50;99.90;;;;;;5055436;28;20202;-72
2022/07/24 01:07:17;;;;;;;10.10;8.73;;;19.40;99.90;;;;;;5055193;28;20460;-72
2022/07/24 01:09:44;;;;;;;9.70;8.80;;;19.40;99.90;;;;;;5054680;28;20486;-72
2022/07/24 01:12:12;;;;;;;10.07;9.17;;;19.40;99.90;;;;;;5055425;28;20459;-72
2022/07/24 01:14:39;;;;;;;10.33;9.37;;;19.40;99.90;;;;;;5055413;28;20471;-72
2022/07/24 01:17:06;;;;;;;9.97;8.93;;;19.40;99.90;;;;;;5055216;28;20459;-72
2022/07/24 01:19:33;;;;;;;10.87;9.80;;;19.40;99.90;;;;;;5054832;28;20465;-72
2022/07/24 01:22:01;;;;;;;10.60;9.50;;;19.40;99.90;;;;;;5055442;28;20478;-72
2022/07/24 01:24:27;;;;;;;9.47;8.67;;;19.30;99.90;;;;;;5057690;28;21026;-72
2022/07/24 01:26:54;;;;;;;11.07;9.97;;;19.30;99.90;;;;;;5057173;28;20487;-72
2022/07/24 01:29:21;;;;;;;10.00;9.10;;;19.30;99.90;;;;;;5056856;28;20474;-72
2022/07/24 01:31:48;;;;;;;11.27;10.10;;;19.30;99.90;;;;;;5057665;28;20456;-72
2022/07/24 01:34:15;;;;;;;9.83;9.03;;;19.30;99.90;;;;;;5056938;28;20474;-72
2022/07/24 01:36:42;;;;;;;11.33;10.23;;;19.30;99.90;;;;;;5057163;28;20491;-72
2022/07/24 01:39:10;;;;;;;11.10;10.07;;;19.30;99.90;;;;;;5056506;28;20858;-72
2022/07/24 01:41:37;;;;;;;10.87;9.87;;;19.30;99.90;;;;;;5057244;28;20967;-72
2022/07/24 01:44:04;;;;;;;10.70;9.90;;;19.30;99.90;;;;;;5056663;28;20851;-72
2022/07/24 01:46:31;;;;;;;10.23;9.23;;;19.30;99.90;;;;;;5056997;28;20827;-72
2022/07/24 01:48:57;;;;;;;10.50;9.50;;;19.30;99.90;;;;;;5056277;28;20462;-72
2022/07/24 01:51:24;;;;;;;9.80;8.97;;;19.30;99.90;;;;;;5055933;28;20487;-73
2022/07/24 01:53:51;;;;;;;10.93;10.00;;;19.20;99.90;;;;;;5056667;28;20470;-72
2022/07/24 01:56:19;;;;;;;9.80;8.93;;;19.20;99.90;;;;;;5056148;28;20487;-72
2022/07/24 01:58:46;;;;;;;9.67;8.77;;;19.20;99.90;;;;;;5056505;28;20471;-72
2022/07/24 02:01:12;;;;;;;9.73;8.80;;;19.20;99.90;;;;;;5055277;28;20481;-72
2022/07/24 02:03:39;;;;;;;9.63;8.67;;;19.20;99.90;;;;;;5056067;28;20460;-72
2022/07/24 02:06:06;;;;;;;9.93;9.13;;;19.10;99.90;;;;;;5055403;28;20476;-72
2022/07/24 02:08:33;;;;;;;9.47;8.67;;;19.10;99.90;;;;;;5055552;28;20521;-72
2022/07/24 02:10:59;;;;;;;10.27;9.30;;;19.10;99.90;;;;;;5054671;28;20483;-73
2022/07/24 02:13:27;;;;;;;9.70;8.50;;;19.10;99.90;;;;;;5055808;28;20459;-73
2022/07/24 02:15:54;;;;;;;9.40;8.50;;;19.00;99.90;;;;;;5055626;28;20827;-73
2022/07/24 02:18:21;;;;;;;10.30;9.40;;;19.00;99.90;;;;;;5055152;28;20850;-72
2022/07/24 02:20:47;;;;;;;9.10;8.30;;;19.00;99.90;;;;;;5055538;28;20455;-73
2022/07/24 02:23:17;;;;;;;9.93;8.90;;;19.00;99.90;;;;;;5054955;28;20468;-72
2022/07/24 02:25:45;;;;;;;8.70;8.00;;;18.90;99.90;;;;;;5054834;28;20491;-72
2022/07/24 02:28:12;;;;;;;10.20;9.30;;;18.90;99.90;;;;;;5054772;28;21005;-72
2022/07/24 02:30:41;;;;;;;9.93;8.80;;;18.90;99.90;;;;;;5054671;28;20480;-72
2022/07/24 02:33:08;;;;;;;9.10;8.30;;;18.90;99.90;;;;;;5054671;28;20471;-73
2022/07/24 02:35:35;;;;;;;9.57;8.77;;;18.80;99.90;;;;;;5055186;28;20479;-73
2022/07/24 02:38:02;;;;;;;8.77;7.97;;;18.80;99.90;;;;;;5054469;28;20460;-73
2022/07/24 02:40:29;;;;;;;9.70;8.80;;;18.70;99.90;;;;;;5054712;28;20467;-73
2022/07/24 02:42:56;;;;;;;9.33;8.53;;;18.70;99.90;;;;;;5054751;28;20559;-72
2022/07/24 02:45:23;;;;;;;9.13;8.17;;;18.70;99.90;;;;;;5054793;28;20484;-72
2022/07/24 02:47:53;;;;;;;8.73;8.03;;;18.70;99.90;;;;;;5054579;28;20464;-72
2022/07/24 02:50:21;;;;;;;9.37;8.57;;;18.60;99.90;;;;;;5054763;28;21227;-72
2022/07/24 02:52:49;;;;;;;9.40;8.50;;;18.60;99.90;;;;;;5054763;28;20474;-72
2022/07/24 02:55:16;;;;;;;9.83;8.93;;;18.50;99.90;;;;;;5054831;28;20524;-73
2022/07/24 02:57:42;;;;;;;9.43;8.40;;;18.50;99.90;;;;;;5054445;28;20937;-73
2022/07/24 03:00:12;;;;;;;9.37;8.57;;;18.50;99.90;;;;;;5053938;28;20452;-73
2022/07/24 03:02:39;;;;;;;9.00;8.20;;;18.50;99.90;;;;;;5055830;28;20837;-73
2022/07/24 03:05:08;;;;;;;10.10;9.20;;;18.40;99.90;;;;;;5055100;28;20484;-73
2022/07/24 03:07:36;;;;;;;8.87;8.00;;;18.40;99.90;;;;;;5055744;28;20471;-73
2022/07/24 03:10:03;;;;;;;8.87;7.97;;;18.40;99.90;;;;;;5054642;28;20487;-72
2022/07/24 03:12:30;;;;;;;8.50;7.80;;;18.30;99.90;;;;;;5055450;28;20521;-73
2022/07/24 03:14:56;;;;;;;13.13;10.50;;;18.30;99.90;;;;;;5054795;28;20468;-73
2022/07/24 03:17:23;;;;;;;9.70;8.73;;;18.20;99.90;;;;;;5054731;28;20460;-73
2022/07/24 03:19:50;;;;;;;8.60;7.87;;;18.20;99.90;;;;;;5053615;28;20491;-72
2022/07/24 03:22:18;;;;;;;9.83;8.23;;;18.20;99.90;;;;;;5054823;28;20464;-73
2022/07/24 03:24:45;;;;;;;8.53;7.83;;;18.20;99.90;;;;;;5054652;28;20464;-73
2022/07/24 03:27:12;;;;;;;9.37;8.47;;;18.10;99.90;;;;;;5054622;28;20475;-73
2022/07/24 03:29:39;;;;;;;10.53;8.93;;;18.10;99.90;;;;;;5054358;28;20464;-73
2022/07/24 03:32:06;;;;;;;8.87;8.00;;;18.10;99.90;;;;;;5054094;28;20840;-73
2022/07/24 03:34:33;;;;;;;8.77;8.00;;;18.10;99.90;;;;;;5055231;28;20460;-72
2022/07/24 03:37:00;;;;;;;13.00;8.60;;;18.00;99.90;;;;;;5054309;28;20488;-73
2022/07/24 03:39:28;;;;;;;9.40;8.50;;;18.00;99.90;;;;;;5054163;28;20466;-72
2022/07/24 03:41:55;;;;;;;8.37;7.67;;;18.00;99.90;;;;;;5054548;28;20471;-72
2022/07/24 03:44:21;;;;;;;10.67;9.60;;;18.00;99.90;;;;;;5053691;28;20468;-73
2022/07/24 03:46:48;;;;;;;9.77;8.80;;;17.90;99.90;;;;;;5054315;28;20484;-72
2022/07/24 03:49:15;;;;;;;11.37;9.13;;;17.90;99.90;;;;;;5053508;28;20464;-73
2022/07/24 03:51:41;;;;;;;8.80;8.00;;;17.90;99.90;;;;;;5054330;28;20490;-73
2022/07/24 03:54:08;;;;;;;10.33;8.27;;;17.90;99.90;;;;;;5054003;28;20982;-72
2022/07/24 03:56:36;;;;;;;9.33;8.33;;;17.80;99.90;;;;;;5053946;28;20869;-73
2022/07/24 03:59:03;;;;;;;8.87;8.00;;;17.80;99.90;;;;;;5053535;28;20467;-73
2022/07/24 04:01:29;;;;;;;8.83;8.10;;;17.80;99.90;;;;;;5053040;28;20535;-73
2022/07/24 04:03:58;;;;;;;9.97;8.83;;;17.80;99.90;;;;;;5053383;28;20535;-72
2022/07/24 04:06:24;;;;;;;8.37;7.63;;;17.80;99.90;;;;;;5053296;28;20472;-72
2022/07/24 04:08:51;;;;;;;9.57;8.70;;;17.80;99.90;;;;;;5053014;28;20871;-73
2022/07/24 04:11:18;;;;;;;9.47;8.57;;;17.70;99.90;;;;;;5052530;28;20484;-73
2022/07/24 04:13:46;;;;;;;9.70;8.80;;;17.80;99.90;;;;;;5053423;28;20673;-72
2022/07/24 04:16:12;;;;;;;10.07;9.17;;;17.70;99.90;;;;;;5053175;28;21007;-72
2022/07/24 04:18:40;;;;;;;9.70;8.80;;;17.70;99.90;;;;;;5053591;28;20475;-73
2022/07/24 04:21:07;;;;;;;9.97;9.07;;;17.70;99.90;;;;;;5052934;28;20905;-72
2022/07/24 04:23:34;;;;;;;10.53;9.63;;;17.70;99.90;;;;;;5053761;28;20518;-72
2022/07/24 04:26:01;;;;;;;13.20;9.67;;;17.70;99.90;;;;;;5053715;28;20484;-73
2022/07/24 04:28:27;;;;;;;10.20;9.00;;;17.80;99.90;;;;;;5053572;28;20464;-72
2022/07/24 04:30:55;;;;;;;9.20;8.30;;;17.80;99.90;;;;;;5051311;28;20583;-73
2022/07/24 04:33:22;;;;;;;9.90;9.03;;;17.80;99.90;;;;;;5052980;28;20459;-72
2022/07/24 04:35:49;;;;;;;9.30;8.50;;;17.80;99.90;;;;;;5051595;28;20503;-72
2022/07/24 04:38:16;;;;;;;10.17;9.23;;;17.80;99.90;;;;;;5051578;28;20951;-72
2022/07/24 04:40:43;;;;;;;9.90;9.10;;;17.80;99.90;;;;;;5051238;28;20460;-72
2022/07/24 04:43:10;;;;;;;9.30;8.50;;;17.80;99.90;;;;;;5055818;28;20460;-73
2022/07/24 04:45:36;;;;;;;10.43;9.43;;;17.80;99.90;;;;;;5054844;28;20491;-72
2022/07/24 04:48:05;;;;;;;9.53;8.73;;;17.80;99.90;;;;;;5051296;28;20468;-72
2022/07/24 04:50:33;;;;;;;9.97;8.97;;;17.80;99.90;;;;;;5051190;28;20460;-72
2022/07/24 04:53:00;;;;;;;9.30;8.40;;;17.90;99.90;;;;;;5051501;28;20467;-72
2022/07/24 04:55:26;;;;;;;9.80;9.00;;;17.90;99.90;;;;;;5051713;28;20487;-73
2022/07/24 04:57:53;;;;;;;10.77;9.77;;;18.00;99.90;;;;;;5051337;28;20463;-72
2022/07/24 05:00:20;;;;;;;10.87;9.77;;;18.00;99.90;;;;;;5047402;28;20475;-72
2022/07/24 05:12:35;;;;;;;10.07;9.17;;;18.20;99.90;;;;;;5017480;28;20473;-93
2022/07/24 05:15:02;;;;;;;9.97;9.07;;;18.30;99.90;;;;;;5033865;28;20556;-93
2022/07/24 05:17:28;;;;;;;9.17;8.40;;;18.30;99.90;;;;;;5033209;28;20464;-92
2022/07/24 05:19:55;;;;;;;9.60;8.70;;;18.30;99.90;;;;;;5035906;28;20837;-92
2022/07/24 05:22:22;;;;;;;9.20;8.40;;;18.40;99.90;;;;;;5036506;28;20502;-94
2022/07/24 05:24:49;;;;;;;9.00;8.30;;;18.40;99.90;;;;;;5034276;28;20461;-94
2022/07/24 05:27:16;;;;;;;9.50;8.70;;;18.50;99.90;;;;;;5033762;28;20511;-93
2022/07/24 05:29:46;;;;;;;9.93;9.03;;;18.60;99.90;;;;;;5034682;28;20470;-93
2022/07/24 05:32:13;;;;;;;11.03;10.00;;;18.70;99.90;;;;;;5042438;28;20896;-94
2022/07/24 05:34:40;;;;;;;10.93;9.90;;;18.80;99.90;;;;;;5044571;28;20466;-94
2022/07/24 05:37:07;;;;;;;10.60;9.70;;;18.90;99.90;;;;;;5039064;28;20564;-93
2022/07/24 05:39:34;;;;;;;9.67;8.77;;;19.00;99.90;;;;;;5037773;28;20805;-94
2022/07/24 05:42:01;;;;;;;10.23;9.23;;;19.00;99.90;;;;;;5038215;28;20584;-92
2022/07/24 05:44:28;;;;;;;10.20;9.20;;;19.10;99.90;;;;;;5041560;28;20469;-92
2022/07/24 05:46:56;;;;;;;11.80;10.70;;;19.20;99.90;;;;;;5041633;28;20857;-93
2022/07/24 05:49:23;;;;;;;10.97;9.87;;;19.30;99.90;;;;;;5041622;28;20463;-92
2022/07/24 05:51:50;;;;;;;11.00;10.00;;;19.40;99.90;;;;;;5042135;28;20480;-93
2022/07/24 05:54:19;;;;;;;12.17;10.97;;;19.50;99.90;;;;;;5047626;28;20475;-92
2022/07/24 05:56:46;;;;;;;11.03;10.10;;;19.50;99.90;;;;;;5044039;28;20465;-91
2022/07/24 05:59:13;;;;;;;11.33;10.20;;;19.70;99.90;;;;;;5039772;28;20495;-90
2022/07/24 06:01:40;;;;;;;12.00;10.63;;;19.80;99.90;;;;;;5039831;28;20492;-92
2022/07/24 06:04:10;;;;;;;11.90;10.63;;;19.90;99.90;;;;;;5041669;28;20844;-93
2022/07/24 06:06:37;;;;;;;11.40;9.37;;;20.00;99.90;;;;;;5041215;28;20457;-93
2022/07/24 06:09:04;;;;;;;11.73;10.60;;;20.10;99.90;;;;;;5041041;28;20876;-92
2022/07/24 06:11:31;;;;;;;11.50;10.30;;;20.10;99.90;;;;;;5040030;28;20492;-91
2022/07/24 06:13:59;;;;;;;12.03;9.70;;;20.20;99.90;;;;;;5046213;28;20511;-92
2022/07/24 06:16:25;;;;;;;9.83;9.00;;;20.30;99.90;;;;;;5052664;28;20471;-91
2022/07/24 06:18:53;;;;;;;10.37;9.47;;;20.40;99.90;;;;;;5047436;28;20465;-95
2022/07/24 06:21:21;;;;;;;10.10;9.20;;;20.50;99.90;;;;;;5048837;28;20575;-93
2022/07/24 06:23:48;;;;;;;9.93;9.00;;;20.50;99.90;;;;;;5051593;28;20464;-94
2022/07/24 06:26:15;;;;;;;10.27;9.30;;;20.70;99.90;;;;;;5049238;28;20473;-94
2022/07/24 06:31:59;;;;;;;9.47;8.67;;;20.90;99.90;;;;;;5034936;28;20978;-92
2022/07/24 06:34:56;;;;;;;9.70;8.70;;;21.00;99.90;;;;;;5051639;28;20461;-92
2022/07/24 06:44:03;;;;;;;9.57;8.57;;;21.40;99.90;;;;;;5039387;28;20468;-91
2022/07/24 06:50:01;;;;;;;8.40;7.67;;;21.60;99.90;;;;;;5040929;28;20459;-92
2022/07/24 06:59:14;;;;;;;10.10;9.20;;;22.00;99.90;;;;;;5017640;28;20501;-91
2022/07/24 07:05:08;;;;;;;8.77;8.07;;;22.30;99.90;;;;;;5018590;28;20465;-91
2022/07/24 07:07:36;;;;;;;10.30;9.30;;;22.50;99.90;;;;;;5028366;28;20461;-90
2022/07/24 07:10:45;;;;;;;9.73;8.87;;;22.60;99.90;;;;;;5038709;28;20464;-91
2022/07/24 07:14:16;;;;;;;9.17;8.03;;;22.70;99.90;;;;;;5039479;28;20474;-92
2022/07/24 07:23:26;;;;;;;8.03;7.33;;;23.20;99.90;;;;;;4957785;28;20488;-92
2022/07/24 07:28:34;;;;;;;7.97;7.20;;;23.30;99.90;;;;;;5039482;28;20498;-92
2022/07/24 07:31:17;;;;;;;7.50;6.90;;;23.30;99.90;;;;;;5040598;28;20457;-92
2022/07/24 07:36:43;;;;;;;7.40;6.80;;;23.40;99.90;;;;;;5025310;28;20460;-93
2022/07/24 07:39:10;;;;;;;8.43;7.33;;;23.50;99.90;;;;;;5041525;28;20469;-92
2022/07/24 07:41:37;;;;;;;8.20;7.37;;;23.50;99.90;;;;;;5039375;28;20489;-92
2022/07/24 07:44:04;;;;;;;7.77;7.03;;;23.60;99.90;;;;;;5038966;28;20467;-91
2022/07/24 07:46:31;;;;;;;7.80;6.97;;;23.70;99.90;;;;;;5038406;28;20516;-92
2022/07/24 07:48:59;;;;;;;7.30;5.90;;;23.70;99.90;;;;;;5037115;28;20461;-92
2022/07/24 07:55:17;;;;;;;8.20;7.50;;;23.90;99.90;;;;;;4993256;28;20937;-92
2022/07/24 07:58:11;;;;;;;8.50;7.60;;;24.00;99.90;;;;;;5042297;28;20465;-93
2022/07/24 08:01:26;;;;;;;7.57;6.87;;;24.10;99.90;;;;;;5038115;28;20455;-93
2022/07/24 08:07:15;;;;;;;8.17;7.33;;;24.30;99.90;;;;;;4978854;28;20928;-92
2022/07/24 08:09:45;;;;;;;8.03;7.23;;;24.40;99.90;;;;;;4976802;28;20494;-92
2022/07/24 08:12:13;;;;;;;8.00;7.30;;;24.50;99.90;;;;;;5039966;28;20475;-92
2022/07/24 08:14:46;;;;;;;7.93;7.33;;;24.60;99.90;;;;;;5045434;28;20461;-96
2022/07/24 08:17:13;;;;;;;8.20;7.50;;;24.70;99.90;;;;;;5056404;28;20455;-91
2022/07/24 08:19:41;;;;;;;8.57;7.77;;;24.80;99.90;;;;;;5040403;28;20495;-92
2022/07/24 08:22:34;;;;;;;9.20;7.77;;;25.00;99.90;;;;;;5042862;28;20552;-93
2022/07/24 08:25:19;;;;;;;7.80;7.00;;;25.10;99.90;;;;;;5036593;28;20981;-92
2022/07/24 08:31:21;;;;;;;7.53;6.80;;;25.30;99.90;;;;;;5037832;28;20443;-94
2022/07/24 08:33:48;;;;;;;10.13;7.20;;;25.30;99.90;;;;;;5056627;28;20451;-93
2022/07/24 08:36:14;;;;;;;6.73;6.23;;;25.30;99.90;;;;;;5049550;28;20468;-91
2022/07/24 08:38:58;;;;;;;7.07;6.47;;;25.40;99.90;;;;;;5045243;28;20476;-91
2022/07/24 08:41:25;;;;;;;7.43;6.83;;;25.50;99.90;;;;;;5044247;28;21056;-92
2022/07/24 08:43:52;;;;;;;7.97;7.07;;;25.60;99.90;;;;;;5044282;28;20459;-92
2022/07/24 08:46:22;;;;;;;7.73;6.97;;;25.70;99.90;;;;;;5044201;28;20460;-91
2022/07/24 08:48:50;;;;;;;8.00;7.30;;;25.80;99.90;;;;;;5043125;28;20573;-91
2022/07/24 08:51:16;;;;;;;7.20;6.60;;;25.90;99.90;;;;;;5047243;28;20518;-92
2022/07/24 08:53:44;;;;;;;6.83;6.13;;;25.90;99.90;;;;;;5050291;28;20476;-93
2022/07/24 08:56:25;;;;;;;7.70;7.10;;;25.90;99.90;;;;;;5050292;28;20463;-91
2022/07/24 08:58:53;;;;;;;6.90;6.40;;;26.00;99.90;;;;;;5048428;28;20484;-92
2022/07/24 09:01:20;;;;;;;9.57;7.07;;;26.10;99.90;;;;;;5052909;28;20484;-93
2022/07/24 09:03:48;;;;;;;7.00;6.40;;;26.20;99.90;;;;;;5054215;28;20484;-92
2022/07/24 09:06:16;;;;;;;8.30;6.23;;;26.20;99.90;;;;;;5051362;28;20456;-92
2022/07/24 09:08:59;;;;;;;7.10;6.50;;;26.20;99.90;;;;;;5044562;28;20448;-94
2022/07/24 09:11:29;;;;;;;6.67;6.10;;;26.10;99.90;;;;;;5040300;28;20476;-91
2022/07/24 09:17:02;;;;;;;8.00;7.30;;;26.00;99.90;;;;;;5045171;28;20471;-94
2022/07/24 09:19:48;;;;;;;7.80;6.57;;;26.20;99.90;;;;;;5049571;28;20452;-92
2022/07/24 09:22:25;;;;;;;6.77;6.17;;;26.40;99.90;;;;;;5048566;28;20538;-92
2022/07/24 09:25:06;;;;;;;6.87;6.17;;;26.50;99.90;;;;;;5048844;28;20461;-93
2022/07/24 09:27:40;;;;;;;6.50;5.90;;;26.80;99.90;;;;;;5042423;28;20465;-92
2022/07/24 09:30:09;;;;;;;6.80;6.20;;;27.10;99.90;;;;;;5042389;28;20522;-91
2022/07/24 09:32:37;;;;;;;7.40;6.70;;;27.20;99.90;;;;;;5041688;28;20477;-92
2022/07/24 09:35:05;;;;;;;6.33;5.83;;;27.40;99.90;;;;;;5042360;28;20460;-92
2022/07/24 09:37:32;;;;;;;6.63;6.03;;;27.40;98.90;;;;;;5041601;28;20475;-91
2022/07/24 09:40:09;;;;;;;7.17;6.57;;;27.50;99.60;;;;;;5050429;28;20461;-93
2022/07/24 09:42:40;;;;;;;7.50;6.90;;;27.40;98.60;;;;;;5050176;28;20479;-92
2022/07/24 09:45:11;;;;;;;10.47;5.90;;;27.40;99.90;;;;;;5043301;28;20539;-93
2022/07/24 09:47:39;;;;;;;9.40;5.97;;;27.40;99.90;;;;;;5038712;28;20476;-91
2022/07/24 09:50:14;;;;;;;6.80;6.20;;;27.30;99.90;;;;;;5039370;28;20469;-92
2022/07/24 09:52:56;;;;;;;6.57;6.07;;;27.20;99.90;;;;;;5040753;28;20484;-93
2022/07/24 09:55:25;;;;;;;8.17;6.20;;;27.00;99.40;;;;;;5038015;28;20460;-92
2022/07/24 09:57:53;;;;;;;7.57;6.70;;;26.90;99.90;;;;;;5037586;28;20480;-95
2022/07/24 10:00:21;;;;;;;32.07;7.03;;;26.90;99.90;;;;;;5037009;28;20472;-92
2022/07/24 10:02:50;;;;;;;13.90;7.37;;;26.80;99.90;;;;;;5036482;28;20480;-91
2022/07/24 10:05:32;;;;;;;8.63;6.83;;;26.70;99.90;;;;;;5042177;28;20539;-91
2022/07/24 10:08:03;;;;;;;8.03;5.87;;;26.60;99.90;;;;;;5049617;28;20582;-91
2022/07/24 10:10:32;;;;;;;7.10;6.40;;;26.50;99.50;;;;;;5044244;28;20461;-91
2022/07/24 10:13:01;;;;;;;14.73;7.50;;;26.50;99.30;;;;;;5045757;28;20485;-91
2022/07/24 10:15:34;;;;;;;9.93;6.70;;;26.50;99.90;;;;;;5046294;28;20524;-91
2022/07/24 10:18:16;;;;;;;10.63;7.23;;;26.60;99.90;;;;;;5048340;28;20544;-92
2022/07/24 10:20:45;;;;;;;10.10;6.57;;;26.90;99.90;;;;;;5048944;28;20469;-95
2022/07/24 10:23:24;;;;;;;7.13;6.53;;;27.10;99.90;;;;;;5048626;28;20477;-91
2022/07/24 10:25:55;;;;;;;6.73;6.20;;;27.00;99.90;;;;;;5042972;28;20519;-92
2022/07/24 10:28:53;;;;;;;6.90;6.33;;;26.90;99.90;;;;;;5042105;28;20464;-91
2022/07/24 10:35:05;;;;;;;11.53;6.40;;;26.80;99.90;;;;;;5042849;28;20457;-93
2022/07/24 10:38:08;;;;;;;7.60;6.07;;;26.70;99.20;;;;;;5046523;28;20508;-91
2022/07/24 10:43:31;;;;;;;5.80;5.30;;;26.60;99.90;;;;;;5030408;28;20887;-70
2022/07/24 10:46:14;;;;;;;6.40;5.63;;;26.50;99.70;;;;;;5031816;28;20486;-72
2022/07/24 10:48:42;;;;;;;14.20;5.80;;;26.50;99.90;;;;;;5032260;28;20517;-68
2022/07/24 10:51:13;;;;;;;6.83;5.70;;;26.70;99.90;;;;;;5031954;28;20460;-68
2022/07/24 10:53:50;;;;;;;6.60;6.00;;;26.80;99.90;;;;;;5030603;28;20468;-69
2022/07/24 10:56:23;;;;;;;8.60;6.00;;;26.90;99.90;;;;;;5031986;28;20852;-68
2022/07/24 10:58:59;;;;;;;9.83;5.67;;;27.00;99.90;;;;;;5032455;28;20461;-68
2022/07/24 11:01:37;;;;;;;6.53;5.83;;;27.10;99.90;;;;;;5031505;28;20482;-68
2022/07/24 11:04:26;;;;;;;8.20;5.30;;;27.30;99.90;;;;;;5048736;23;20510;-68
2022/07/24 11:06:54;;;;;;;18.10;6.13;;;27.50;99.90;;;;;;5050950;28;20468;-69
2022/07/24 11:09:23;;;;;;;7.63;6.70;;;27.70;99.90;;;;;;5051015;28;20880;-68
2022/07/24 11:12:07;;;;;;;6.30;5.70;;;27.60;98.50;;;;;;5050333;28;20452;-69
2022/07/24 11:14:50;;;;;;;5.43;4.93;;;27.50;98.70;;;;;;5050414;28;20462;-69
2022/07/24 11:17:40;;;;;;;5.93;5.30;;;27.30;99.00;;;;;;5051368;28;21035;-69
2022/07/24 11:20:11;;;;;;;7.07;5.17;;;27.40;99.20;;;;;;5047553;28;20460;-69
2022/07/24 11:22:41;;;;;;;5.57;5.07;;;27.40;99.90;;;;;;5051265;28;20484;-68
2022/07/24 11:25:21;;;;;;;6.20;5.60;;;27.40;99.90;;;;;;5051695;28;20477;-68
2022/07/24 11:27:58;;;;;;;7.33;5.13;;;27.40;99.90;;;;;;5051637;28;20471;-68
2022/07/24 11:30:27;;;;;;;11.23;5.80;;;27.20;99.90;;;;;;5050688;28;20494;-69
2022/07/24 11:32:54;;;;;;;6.33;5.73;;;27.10;99.90;;;;;;5051490;28;20448;-68
2022/07/24 11:35:30;;;;;;;6.20;5.60;;;27.00;99.90;;;;;;5050986;28;20878;-68
2022/07/24 11:37:56;;;;;;;7.43;6.00;;;27.00;99.90;;;;;;5051191;28;20456;-69
2022/07/24 11:40:23;;;;;;;10.97;6.00;;;27.00;99.90;;;;;;5050364;28;20522;-69
2022/07/24 11:42:56;;;;;;;9.23;5.07;;;27.20;99.90;;;;;;5051078;28;20516;-67
2022/07/24 11:45:22;;;;;;;11.43;5.30;;;27.50;99.90;;;;;;5050824;28;20511;-68
2022/07/24 11:47:49;;;;;;;5.57;5.07;;;28.00;99.90;;;;;;5051295;28;20460;-68
2022/07/24 11:50:16;;;;;;;5.40;4.90;;;28.40;99.90;;;;;;5051060;28;20467;-69
2022/07/24 11:52:44;;;;;;;5.10;4.70;;;28.80;99.90;;;;;;5050803;28;20826;-68
2022/07/24 11:55:13;;;;;;;4.47;4.07;;;29.10;99.90;;;;;;5050632;28;20488;-69
2022/07/24 11:57:42;;;;;;;5.27;4.63;;;29.30;99.90;;;;;;5047482;28;20471;-69
2022/07/24 12:00:12;;;;;;;4.60;4.20;;;29.60;99.70;;;;;;5049639;28;20955;-69
2022/07/24 12:02:44;;;;;;;4.90;4.07;;;29.90;98.80;;;;;;5050262;28;20464;-69
2022/07/24 12:05:10;;;;;;;5.50;5.03;;;30.10;97.90;;;;;;5049107;28;21057;-69
2022/07/24 12:07:37;;;;;;;5.53;4.90;;;30.30;96.80;;;;;;5050567;28;20460;-69
2022/07/24 12:10:06;;;;;;;5.37;4.87;;;30.40;97.40;;;;;;5050180;28;20464;-68
2022/07/24 12:12:34;;;;;;;5.07;4.67;;;30.50;96.90;;;;;;5050109;28;20553;-69
2022/07/24 12:15:04;;;;;;;4.73;4.33;;;30.50;95.80;;;;;;5050663;28;20460;-69
2022/07/24 12:17:32;;;;;;;4.70;4.30;;;30.50;96.50;;;;;;5050036;28;20463;-69
2022/07/24 12:20:00;;;;;;;5.47;4.87;;;30.60;97.30;;;;;;5049986;28;20463;-69
2022/07/24 12:22:29;;;;;;;6.10;5.60;;;30.70;97.20;;;;;;5050095;28;20902;-68
2022/07/24 12:24:58;;;;;;;5.90;4.93;;;30.60;92.10;;;;;;5049981;28;20460;-69
2022/07/24 12:27:37;;;;;;;6.70;5.10;;;30.50;94.60;;;;;;5050560;28;20840;-68
2022/07/24 12:30:17;;;;;;;5.27;4.70;;;30.60;94.20;;;;;;5050039;28;20456;-69
2022/07/24 12:32:54;;;;;;;5.40;5.00;;;30.60;95.40;;;;;;5050771;28;20499;-69
2022/07/24 12:35:21;;;;;;;4.77;4.37;;;30.60;95.10;;;;;;5050019;28;20495;-69
2022/07/24 12:37:48;;;;;;;4.73;4.33;;;30.40;95.40;;;;;;5050114;28;20456;-69
2022/07/24 12:40:27;;;;;;;5.53;5.03;;;30.30;93.50;;;;;;5049825;28;20460;-69
2022/07/24 12:43:01;;;;;;;4.83;4.43;;;30.00;92.60;;;;;;5049764;28;20467;-69
2022/07/24 12:45:28;;;;;;;5.10;4.63;;;30.10;96.40;;;;;;5049862;28;20506;-68
2022/07/24 12:48:22;;;;;;;4.73;4.33;;;30.30;94.80;;;;;;5050012;28;20839;-69
2022/07/24 12:51:09;;;;;;;5.40;4.90;;;30.30;94.30;;;;;;5013755;28;20963;-69
2022/07/24 12:53:38;;;;;;;4.97;4.60;;;30.30;93.00;;;;;;5049528;28;20543;-69
2022/07/24 12:56:08;;;;;;;4.67;4.33;;;30.20;93.70;;;;;;5050131;28;20480;-69
2022/07/24 12:58:55;;;;;;;4.83;4.43;;;30.10;93.40;;;;;;5049745;28;20466;-69
2022/07/24 13:01:23;;;;;;;4.97;4.57;;;30.20;94.10;;;;;;5049158;28;20955;-69
2022/07/24 13:03:56;;;;;;;5.20;4.70;;;30.50;94.30;;;;;;5049408;28;20480;-68
2022/07/24 13:06:37;;;;;;;5.50;5.00;;;30.70;91.70;;;;;;5049761;28;20476;-69
2022/07/24 13:09:06;;;;;;;6.00;5.50;;;30.70;93.60;;;;;;5050131;28;20460;-69
2022/07/24 13:11:32;;;;;;;4.93;4.53;;;30.70;95.80;;;;;;5048970;28;20459;-69
2022/07/24 13:14:00;;;;;;;5.90;5.10;;;30.80;95.80;;;;;;5049613;28;20463;-68
2022/07/24 13:16:29;;;;;;;5.40;4.90;;;31.00;95.50;;;;;;5048457;28;20598;-68
2022/07/24 13:18:56;;;;;;;5.20;4.70;;;31.10;95.10;;;;;;5048985;28;20456;-70
2022/07/24 13:21:23;;;;;;;5.43;5.00;;;31.30;95.60;;;;;;5049086;28;20460;-69
2022/07/24 13:23:49;;;;;;;5.17;4.70;;;31.30;94.00;;;;;;5048410;28;20552;-69
2022/07/24 13:26:16;;;;;;;5.57;4.50;;;31.40;95.30;;;;;;5049526;28;21056;-69
2022/07/24 13:28:43;;;;;;;5.30;4.90;;;31.30;94.20;;;;;;5049165;28;20831;-70
2022/07/24 13:31:11;;;;;;;5.40;5.00;;;31.40;94.30;;;;;;5048901;28;20471;-70
2022/07/24 13:33:38;;;;;;;5.40;4.90;;;31.30;94.20;;;;;;5048940;28;20456;-70
2022/07/24 13:36:05;;;;;;;5.13;4.63;;;31.40;93.90;;;;;;5049258;28;20480;-69
2022/07/24 13:38:32;;;;;;;6.13;5.53;;;31.40;93.50;;;;;;5049335;28;20970;-70
2022/07/24 13:40:59;;;;;;;5.53;5.03;;;31.30;93.40;;;;;;5049141;28;20834;-69
2022/07/24 13:43:26;;;;;;;5.67;4.87;;;31.30;95.80;;;;;;5049034;28;20484;-69
2022/07/24 13:45:53;;;;;;;5.40;4.90;;;31.40;92.40;;;;;;5049420;28;20483;-69
2022/07/24 13:48:21;;;;;;;4.53;4.13;;;31.50;90.90;;;;;;5049121;28;20839;-69
2022/07/24 13:50:48;;;;;;;5.03;4.53;;;31.40;90.20;;;;;;5049010;28;20463;-70
2022/07/24 13:53:14;;;;;;;4.63;4.20;;;31.40;92.50;;;;;;5049491;28;20464;-70
2022/07/24 13:55:41;;;;;;;5.80;5.30;;;31.40;91.70;;;;;;5048637;28;20908;-69
2022/07/24 13:58:08;;;;;;;5.23;4.63;;;31.50;94.60;;;;;;5048668;28;20459;-69
2022/07/24 14:00:35;;;;;;;5.73;4.47;;;31.60;94.50;;;;;;5048543;28;20463;-70
2022/07/24 14:03:02;;;;;;;5.80;5.30;;;31.60;91.40;;;;;;5048562;28;20490;-69